Time;durP1;ratioP1;P1;durP2;ratioP2;P2;SDS_P1;SDS_P2;PMS_P1;PMS_P2;Temp;Humidity;BMP_temperature;BMP_pressure;BME280_temperature;BME280_humidity;BME280_pressure;Samples;Min_cycle;Max_cycle;Signal;HPM_P1;HPM_P2
2021/06/23 00:01:22;;;;;;;4.70;1.88;;;;;;;;;;4999529;28;39721;-84
2021/06/23 00:03:48;;;;;;;10.43;2.25;;;;;;;;;;5005674;28;37146;-85
2021/06/23 00:06:14;;;;;;;11.18;1.60;;;;;;;;;;5009308;28;40780;-85
2021/06/23 00:08:41;;;;;;;7.78;1.63;;;;;;;;;;5008524;28;40921;-85
2021/06/23 00:11:07;;;;;;;11.07;2.10;;;;;;;;;;5015285;28;39176;-84
2021/06/23 00:13:35;;;;;;;8.73;1.85;;;;;;;;;;4998562;28;37554;-85
2021/06/23 00:16:02;;;;;;;8.93;1.63;;;;;;;;;;5001952;28;39085;-84
2021/06/23 00:18:28;;;;;;;6.55;1.95;;;;;;;;;;5028443;28;47500;-83
2021/06/23 00:20:55;;;;;;;8.60;1.77;;;;;;;;;;5006445;28;39251;-87
2021/06/23 00:23:21;;;;;;;4.60;1.52;;;;;;;;;;5019781;28;36739;-85
2021/06/23 00:25:47;;;;;;;9.85;1.70;;;;;;;;;;5000338;28;39909;-85
2021/06/23 00:28:14;;;;;;;9.57;2.47;;;;;;;;;;4995295;28;39267;-82
2021/06/23 00:30:40;;;;;;;9.63;2.10;;;;;;;;;;5012001;28;39410;-82
2021/06/23 00:33:07;;;;;;;8.63;1.80;;;;;;;;;;5012703;28;36958;-83
2021/06/23 00:35:34;;;;;;;7.72;2.08;;;;;;;;;;5010872;28;39734;-85
2021/06/23 00:38:01;;;;;;;7.80;2.30;;;;;;;;;;5010935;28;39357;-85
2021/06/23 00:40:28;;;;;;;9.98;1.45;;;;;;;;;;5015718;28;47260;-86
2021/06/23 00:42:54;;;;;;;5.53;1.40;;;;;;;;;;4994420;28;37206;-85
2021/06/23 00:45:21;;;;;;;7.78;2.30;;;;;;;;;;4993677;28;39977;-84
2021/06/23 00:47:48;;;;;;;9.93;2.00;;;;;;;;;;4999310;28;39376;-85
2021/06/23 00:50:16;;;;;;;9.32;1.88;;;;;;;;;;4993887;28;40198;-84
2021/06/23 00:52:43;;;;;;;10.63;2.55;;;;;;;;;;5014023;28;37419;-85
2021/06/23 00:55:09;;;;;;;6.13;1.60;;;;;;;;;;5031392;28;40878;-86
2021/06/23 00:57:38;;;;;;;9.50;2.60;;;;;;;;;;5016013;28;39516;-84
2021/06/23 01:00:05;;;;;;;6.30;1.73;;;;;;;;;;5017732;28;39287;-85
2021/06/23 01:02:32;;;;;;;8.70;2.00;;;;;;;;;;5002441;28;36717;-83
2021/06/23 01:04:58;;;;;;;7.32;1.67;;;;;;;;;;4992280;28;40820;-86
2021/06/23 01:07:25;;;;;;;9.05;1.98;;;;;;;;;;5004210;28;38210;-86
2021/06/23 01:09:55;;;;;;;6.88;1.70;;;;;;;;;;4996176;28;39204;-84
2021/06/23 01:12:24;;;;;;;4.75;1.60;;;;;;;;;;4996687;28;35455;-83
2021/06/23 01:14:53;;;;;;;10.27;1.73;;;;;;;;;;4993990;28;39360;-85
2021/06/23 01:17:23;;;;;;;7.82;1.73;;;;;;;;;;5002205;28;37826;-83
2021/06/23 01:19:52;;;;;;;5.35;1.45;;;;;;;;;;4993768;28;39757;-83
2021/06/23 01:22:19;;;;;;;9.15;1.95;;;;;;;;;;5000331;28;37348;-84
2021/06/23 01:24:45;;;;;;;8.43;1.55;;;;;;;;;;4992431;28;40452;-84
2021/06/23 01:27:12;;;;;;;6.82;1.50;;;;;;;;;;4999954;28;37100;-82
2021/06/23 01:29:39;;;;;;;15.00;2.28;;;;;;;;;;4990751;28;38538;-82
2021/06/23 01:32:09;;;;;;;8.68;1.70;;;;;;;;;;5001567;28;37162;-81
2021/06/23 01:34:36;;;;;;;7.80;1.67;;;;;;;;;;5011628;28;38102;-83
2021/06/23 01:37:03;;;;;;;11.98;2.13;;;;;;;;;;5010273;28;37955;-84
2021/06/23 01:39:29;;;;;;;7.50;1.67;;;;;;;;;;5014534;28;39703;-84
2021/06/23 01:41:56;;;;;;;7.57;1.40;;;;;;;;;;5005032;28;36349;-84
2021/06/23 01:44:23;;;;;;;9.02;1.70;;;;;;;;;;4988892;28;37942;-84
2021/06/23 01:46:49;;;;;;;7.97;1.73;;;;;;;;;;4996722;28;39651;-84
2021/06/23 01:49:25;;;;;;;8.02;1.52;;;;;;;;;;4990376;28;37794;-84
2021/06/23 01:51:52;;;;;;;13.13;1.88;;;;;;;;;;5000278;28;36117;-85
2021/06/23 01:54:18;;;;;;;6.32;1.73;;;;;;;;;;4989476;28;37939;-85
2021/06/23 01:56:45;;;;;;;8.93;1.85;;;;;;;;;;5002392;28;39140;-84
2021/06/23 01:59:12;;;;;;;7.05;1.65;;;;;;;;;;4998251;28;38573;-84
2021/06/23 02:02:04;;;;;;;8.02;1.55;;;;;;;;;;4999745;28;34963;-83
2021/06/23 02:04:49;;;;;;;7.63;1.48;;;;;;;;;;5011978;28;46889;-85
2021/06/23 02:07:34;;;;;;;5.82;1.58;;;;;;;;;;5016616;28;37940;-82
2021/06/23 02:10:03;;;;;;;9.50;1.92;;;;;;;;;;4994063;28;37969;-81
2021/06/23 02:12:30;;;;;;;8.48;1.60;;;;;;;;;;4985591;28;46432;-81
2021/06/23 02:15:05;;;;;;;8.07;1.75;;;;;;;;;;5007827;28;38455;-82
2021/06/23 02:17:32;;;;;;;7.63;2.13;;;;;;;;;;4982313;28;49141;-84
2021/06/23 02:19:59;;;;;;;8.73;1.60;;;;;;;;;;4995878;28;38838;-81
2021/06/23 02:22:27;;;;;;;6.78;1.63;;;;;;;;;;4998563;28;36836;-82
2021/06/23 02:25:02;;;;;;;10.52;1.98;;;;;;;;;;4984472;28;39287;-81
2021/06/23 02:27:29;;;;;;;9.65;1.55;;;;;;;;;;4993072;28;39702;-80
2021/06/23 02:29:55;;;;;;;7.40;1.58;;;;;;;;;;4988320;28;39111;-84
2021/06/23 02:32:24;;;;;;;5.70;1.70;;;;;;;;;;4993699;28;38668;-80
2021/06/23 02:34:52;;;;;;;5.65;2.05;;;;;;;;;;4991357;28;39850;-82
2021/06/23 02:37:18;;;;;;;6.90;1.70;;;;;;;;;;5004312;28;39824;-81
2021/06/23 02:39:45;;;;;;;6.30;1.92;;;;;;;;;;5012619;28;40041;-81
2021/06/23 02:42:11;;;;;;;8.77;2.20;;;;;;;;;;4998537;28;37484;-80
2021/06/23 02:44:39;;;;;;;8.05;1.88;;;;;;;;;;5003053;28;39172;-77
2021/06/23 02:47:05;;;;;;;11.23;2.25;;;;;;;;;;4993772;28;39333;-81
2021/06/23 02:49:32;;;;;;;7.63;2.15;;;;;;;;;;4983952;28;40166;-83
2021/06/23 02:51:58;;;;;;;8.57;2.20;;;;;;;;;;4995149;28;37942;-79
2021/06/23 02:54:25;;;;;;;12.07;2.30;;;;;;;;;;4986086;28;39649;-82
2021/06/23 02:56:52;;;;;;;9.85;2.25;;;;;;;;;;4998673;28;38908;-83
2021/06/23 02:59:19;;;;;;;10.00;2.08;;;;;;;;;;4989109;28;38904;-81
2021/06/23 03:01:46;;;;;;;6.57;1.63;;;;;;;;;;4993046;28;36115;-83
2021/06/23 03:04:12;;;;;;;7.82;2.15;;;;;;;;;;4987961;28;40254;-82
2021/06/23 03:06:39;;;;;;;6.78;1.90;;;;;;;;;;4999689;28;39280;-80
2021/06/23 03:09:06;;;;;;;11.30;2.00;;;;;;;;;;4985877;28;38038;-81
2021/06/23 03:11:36;;;;;;;9.10;2.10;;;;;;;;;;5002983;28;37967;-79
2021/06/23 03:14:02;;;;;;;9.40;2.28;;;;;;;;;;4993944;28;38527;-82
2021/06/23 03:16:29;;;;;;;12.35;2.83;;;;;;;;;;4998774;28;47325;-81
2021/06/23 03:18:55;;;;;;;7.07;2.40;;;;;;;;;;5011419;28;38588;-79
2021/06/23 03:21:22;;;;;;;6.22;2.13;;;;;;;;;;5008611;28;37143;-79
2021/06/23 03:23:49;;;;;;;8.50;2.00;;;;;;;;;;4985785;28;39731;-78
2021/06/23 03:26:16;;;;;;;6.28;2.25;;;;;;;;;;5001144;28;38797;-80
2021/06/23 03:28:42;;;;;;;5.38;1.52;;;;;;;;;;4990630;28;38603;-77
2021/06/23 03:31:08;;;;;;;12.52;2.38;;;;;;;;;;4994228;28;38293;-79
2021/06/23 03:33:35;;;;;;;9.93;2.55;;;;;;;;;;4988585;28;38804;-79
2021/06/23 03:36:01;;;;;;;9.23;2.75;;;;;;;;;;4996090;28;40197;-79
2021/06/23 03:38:27;;;;;;;7.88;2.35;;;;;;;;;;5015628;28;47829;-78
2021/06/23 03:40:54;;;;;;;5.50;1.70;;;;;;;;;;5017542;28;37283;-79
2021/06/23 03:43:20;;;;;;;9.15;2.67;;;;;;;;;;5018256;28;39337;-80
2021/06/23 03:45:47;;;;;;;6.65;2.10;;;;;;;;;;4992755;28;37053;-79
2021/06/23 03:48:14;;;;;;;11.07;3.05;;;;;;;;;;4991734;28;40190;-78
2021/06/23 03:50:42;;;;;;;6.93;2.08;;;;;;;;;;4991397;28;36777;-78
2021/06/23 03:53:09;;;;;;;6.03;2.30;;;;;;;;;;4997402;28;40173;-79
2021/06/23 03:55:35;;;;;;;10.60;3.00;;;;;;;;;;5002117;28;39299;-78
2021/06/23 03:58:02;;;;;;;6.60;1.95;;;;;;;;;;5019292;28;39147;-78
2021/06/23 04:00:29;;;;;;;8.40;2.10;;;;;;;;;;4987609;28;47147;-79
2021/06/23 04:02:56;;;;;;;13.20;2.33;;;;;;;;;;5009123;28;39082;-81
2021/06/23 04:05:22;;;;;;;10.27;2.63;;;;;;;;;;5012057;28;38934;-81
2021/06/23 04:07:49;;;;;;;7.07;2.42;;;;;;;;;;4998968;28;39158;-81
2021/06/23 04:10:16;;;;;;;9.88;2.70;;;;;;;;;;4986828;28;37936;-81
2021/06/23 04:12:42;;;;;;;7.40;2.45;;;;;;;;;;4992652;28;37579;-81
2021/06/23 04:15:10;;;;;;;12.25;3.10;;;;;;;;;;4984479;28;39951;-81
2021/06/23 04:17:37;;;;;;;7.38;2.92;;;;;;;;;;5007361;28;38201;-81
2021/06/23 04:20:07;;;;;;;9.23;2.90;;;;;;;;;;4986175;28;37668;-79
2021/06/23 04:22:37;;;;;;;11.73;3.20;;;;;;;;;;4979640;28;46898;-80
2021/06/23 04:25:04;;;;;;;8.05;2.38;;;;;;;;;;4986781;28;39100;-81
2021/06/23 04:27:30;;;;;;;5.45;2.25;;;;;;;;;;4991165;28;38527;-80
2021/06/23 04:29:57;;;;;;;9.82;2.92;;;;;;;;;;4980836;28;37309;-83
2021/06/23 04:32:23;;;;;;;6.80;2.63;;;;;;;;;;4997734;28;41147;-79
2021/06/23 04:34:49;;;;;;;8.13;2.85;;;;;;;;;;4985527;28;40443;-79
2021/06/23 04:37:16;;;;;;;8.60;3.65;;;;;;;;;;4988811;28;39576;-80
2021/06/23 04:39:42;;;;;;;8.48;3.28;;;;;;;;;;5003644;28;38105;-80
2021/06/23 04:42:12;;;;;;;9.63;3.35;;;;;;;;;;4999721;28;39773;-81
2021/06/23 04:44:38;;;;;;;9.10;3.50;;;;;;;;;;5001241;28;37911;-80
2021/06/23 04:47:04;;;;;;;10.15;4.13;;;;;;;;;;4992838;28;38268;-81
2021/06/23 04:49:31;;;;;;;7.30;3.53;;;;;;;;;;4985277;28;38673;-79
2021/06/23 04:51:57;;;;;;;8.35;3.05;;;;;;;;;;4999456;28;38111;-78
2021/06/23 04:54:24;;;;;;;6.68;2.65;;;;;;;;;;5007844;28;38659;-82
2021/06/23 04:56:50;;;;;;;9.38;3.03;;;;;;;;;;4997743;28;38471;-78
2021/06/23 04:59:16;;;;;;;12.82;4.57;;;;;;;;;;4994122;28;35861;-79
2021/06/23 05:01:43;;;;;;;5.05;2.40;;;;;;;;;;5006225;28;37980;-80
2021/06/23 05:04:09;;;;;;;5.47;2.72;;;;;;;;;;5006696;28;39283;-80
2021/06/23 05:06:36;;;;;;;7.63;2.50;;;;;;;;;;5007720;28;37125;-79
2021/06/23 05:09:06;;;;;;;8.63;2.70;;;;;;;;;;4988905;28;36530;-80
2021/06/23 05:11:35;;;;;;;11.73;2.55;;;;;;;;;;5045155;28;47548;-77
2021/06/23 05:14:01;;;;;;;9.63;2.40;;;;;;;;;;4998158;28;39237;-80
2021/06/23 05:16:28;;;;;;;4.75;2.20;;;;;;;;;;5009950;28;37240;-80
2021/06/23 05:18:55;;;;;;;6.45;2.10;;;;;;;;;;5016142;28;35944;-81
2021/06/23 05:21:21;;;;;;;7.47;2.40;;;;;;;;;;5009174;28;39207;-80
2021/06/23 05:23:48;;;;;;;8.60;2.35;;;;;;;;;;5026171;28;39151;-80
2021/06/23 05:26:14;;;;;;;6.07;2.38;;;;;;;;;;5005876;28;38505;-81
2021/06/23 05:28:41;;;;;;;4.07;2.20;;;;;;;;;;4998859;28;36171;-80
2021/06/23 05:31:07;;;;;;;9.30;2.05;;;;;;;;;;4999324;28;40070;-81
2021/06/23 05:33:34;;;;;;;5.15;1.90;;;;;;;;;;5005014;28;37510;-80
2021/06/23 05:36:00;;;;;;;6.82;1.95;;;;;;;;;;5006638;28;40054;-79
2021/06/23 05:38:27;;;;;;;4.72;2.08;;;;;;;;;;4994025;28;36931;-79
2021/06/23 05:40:53;;;;;;;5.30;1.88;;;;;;;;;;5015330;28;39732;-80
2021/06/23 05:43:19;;;;;;;7.93;2.30;;;;;;;;;;5007127;28;38724;-78
2021/06/23 05:45:46;;;;;;;10.70;2.38;;;;;;;;;;5002162;28;39621;-79
2021/06/23 05:48:12;;;;;;;8.77;2.50;;;;;;;;;;4995913;28;38538;-79
2021/06/23 05:50:42;;;;;;;5.85;1.92;;;;;;;;;;5006185;28;20050;-79
2021/06/23 05:53:08;;;;;;;7.00;2.30;;;;;;;;;;5008179;28;38716;-79
2021/06/23 05:55:36;;;;;;;5.18;1.60;;;;;;;;;;4999309;28;39823;-77
2021/06/23 05:58:02;;;;;;;7.30;1.98;;;;;;;;;;5011066;28;37588;-78
2021/06/23 06:00:29;;;;;;;4.50;1.88;;;;;;;;;;5005672;28;39057;-79
2021/06/23 06:02:55;;;;;;;7.55;2.20;;;;;;;;;;5008107;28;41792;-79
2021/06/23 06:05:21;;;;;;;6.20;2.13;;;;;;;;;;4998540;28;39803;-78
2021/06/23 06:07:49;;;;;;;9.93;1.95;;;;;;;;;;5004280;28;36547;-79
2021/06/23 06:10:16;;;;;;;4.35;1.52;;;;;;;;;;4996703;28;39086;-78
2021/06/23 06:12:43;;;;;;;4.60;1.42;;;;;;;;;;5023786;28;39553;-81
2021/06/23 06:15:09;;;;;;;5.88;1.90;;;;;;;;;;5005089;28;38803;-79
2021/06/23 06:17:36;;;;;;;8.43;1.50;;;;;;;;;;5005144;28;37591;-81
2021/06/23 06:20:05;;;;;;;3.55;1.70;;;;;;;;;;5018558;28;39754;-78
2021/06/23 06:22:32;;;;;;;5.95;1.63;;;;;;;;;;5007137;28;48520;-78
2021/06/23 06:24:59;;;;;;;4.80;1.48;;;;;;;;;;5000934;28;38639;-78
2021/06/23 06:27:25;;;;;;;7.00;1.63;;;;;;;;;;4997574;28;37111;-79
2021/06/23 06:29:51;;;;;;;4.32;1.45;;;;;;;;;;5000411;28;40219;-77
2021/06/23 06:32:18;;;;;;;7.93;1.40;;;;;;;;;;5001393;28;39623;-78
2021/06/23 06:34:44;;;;;;;8.68;1.45;;;;;;;;;;4993808;28;38162;-77
2021/06/23 06:37:11;;;;;;;7.25;1.75;;;;;;;;;;5005369;28;36888;-80
2021/06/23 06:39:38;;;;;;;7.78;1.52;;;;;;;;;;5020238;28;41488;-78
2021/06/23 06:42:05;;;;;;;5.35;1.67;;;;;;;;;;5010072;28;38729;-77
2021/06/23 06:44:32;;;;;;;4.72;1.48;;;;;;;;;;5003698;28;39753;-78
2021/06/23 06:47:01;;;;;;;6.28;1.77;;;;;;;;;;5012184;28;38281;-77
2021/06/23 06:49:29;;;;;;;5.93;1.60;;;;;;;;;;5013895;28;48925;-79
2021/06/23 06:51:59;;;;;;;5.60;1.38;;;;;;;;;;5009766;28;39657;-79
2021/06/23 06:54:26;;;;;;;7.47;1.73;;;;;;;;;;5004300;28;40505;-79
2021/06/23 06:56:52;;;;;;;9.07;2.00;;;;;;;;;;5001949;28;37834;-78
2021/06/23 06:59:19;;;;;;;4.93;1.17;;;;;;;;;;4994531;28;40033;-80
2021/06/23 07:01:46;;;;;;;4.78;1.27;;;;;;;;;;5004974;28;39688;-79
2021/06/23 07:04:14;;;;;;;6.00;1.60;;;;;;;;;;5006919;28;39672;-78
2021/06/23 07:06:41;;;;;;;12.60;1.58;;;;;;;;;;5003100;28;37029;-78
2021/06/23 07:09:07;;;;;;;6.22;1.58;;;;;;;;;;4990343;28;38983;-78
2021/06/23 07:11:34;;;;;;;9.13;1.70;;;;;;;;;;5003889;28;39521;-79
2021/06/23 07:14:00;;;;;;;7.80;1.88;;;;;;;;;;5019380;28;39315;-79
2021/06/23 07:16:27;;;;;;;5.10;1.30;;;;;;;;;;5000262;28;35764;-79
2021/06/23 07:18:53;;;;;;;8.35;1.17;;;;;;;;;;5002227;28;40077;-79
2021/06/23 07:21:19;;;;;;;8.15;1.73;;;;;;;;;;4999951;28;39584;-78
2021/06/23 07:23:46;;;;;;;4.75;1.17;;;;;;;;;;4992142;28;40466;-77
2021/06/23 07:26:13;;;;;;;7.47;1.38;;;;;;;;;;5000255;28;37942;-79
2021/06/23 07:28:50;;;;;;;6.97;1.45;;;;;;;;;;5004011;28;40116;-78
2021/06/23 07:31:24;;;;;;;7.65;1.63;;;;;;;;;;5008419;28;38777;-78
2021/06/23 07:33:54;;;;;;;5.07;1.30;;;;;;;;;;5001335;28;38410;-78
2021/06/23 07:36:37;;;;;;;4.68;1.30;;;;;;;;;;5010931;28;37849;-78
2021/06/23 07:39:04;;;;;;;5.43;1.33;;;;;;;;;;4993182;28;40653;-79
2021/06/23 07:41:31;;;;;;;5.50;1.45;;;;;;;;;;4986427;28;39289;-80
2021/06/23 07:43:57;;;;;;;5.32;1.33;;;;;;;;;;5001474;28;40306;-78
2021/06/23 07:46:26;;;;;;;6.90;1.50;;;;;;;;;;5000752;28;36580;-77
2021/06/23 07:48:55;;;;;;;7.20;1.40;;;;;;;;;;5018454;28;39228;-78
2021/06/23 07:51:33;;;;;;;2.78;1.17;;;;;;;;;;5017282;28;39510;-77
2021/06/23 07:54:20;;;;;;;6.85;1.50;;;;;;;;;;4994618;28;38993;-79
2021/06/23 08:10:02;;;;;;;8.23;1.55;;;;;;;;;;5002128;28;40207;-78
2021/06/23 08:12:38;;;;;;;9.45;1.50;;;;;;;;;;5003739;28;47981;-78
2021/06/23 08:15:05;;;;;;;7.70;1.88;;;;;;;;;;5006469;28;38666;-80
2021/06/23 08:17:31;;;;;;;3.95;1.00;;;;;;;;;;4990035;28;47448;-79
2021/06/23 08:19:58;;;;;;;5.47;1.50;;;;;;;;;;4989099;28;40509;-78
2021/06/23 08:22:24;;;;;;;3.08;0.98;;;;;;;;;;5008329;28;40012;-80
2021/06/23 08:24:50;;;;;;;7.60;1.60;;;;;;;;;;5002978;28;37268;-78
2021/06/23 08:27:17;;;;;;;4.97;1.58;;;;;;;;;;4995980;28;36544;-79
2021/06/23 08:29:43;;;;;;;4.38;1.40;;;;;;;;;;4989363;28;39765;-77
2021/06/23 08:32:10;;;;;;;5.32;1.25;;;;;;;;;;4997379;28;39013;-79
2021/06/23 08:34:36;;;;;;;6.50;1.50;;;;;;;;;;4996948;28;39162;-79
2021/06/23 08:37:03;;;;;;;7.85;1.92;;;;;;;;;;5000190;28;35942;-79
2021/06/23 08:39:29;;;;;;;6.80;1.50;;;;;;;;;;5008091;28;41203;-79
2021/06/23 08:41:56;;;;;;;5.75;1.63;;;;;;;;;;5010913;28;38917;-79
2021/06/23 08:44:22;;;;;;;5.50;1.40;;;;;;;;;;5023191;28;37688;-77
2021/06/23 08:46:50;;;;;;;4.72;1.15;;;;;;;;;;5024304;27;37335;-79
2021/06/23 08:49:16;;;;;;;3.95;1.20;;;;;;;;;;5008736;28;38806;-78
2021/06/23 08:51:43;;;;;;;6.65;1.75;;;;;;;;;;5016965;28;38727;-80
2021/06/23 08:54:10;;;;;;;4.03;1.33;;;;;;;;;;5000715;28;38710;-78
2021/06/23 08:56:37;;;;;;;6.60;2.05;;;;;;;;;;4999000;28;36093;-78
2021/06/23 08:59:04;;;;;;;5.00;1.48;;;;;;;;;;5008894;28;38670;-77
2021/06/23 09:01:32;;;;;;;9.05;2.25;;;;;;;;;;4998874;28;39273;-79
2021/06/23 09:04:04;;;;;;;7.20;2.00;;;;;;;;;;4999977;28;38780;-79
2021/06/23 09:06:45;;;;;;;5.60;1.73;;;;;;;;;;4994814;28;48741;-80
2021/06/23 09:09:16;;;;;;;5.13;0.93;;;;;;;;;;5010616;28;38034;-78
2021/06/23 09:11:42;;;;;;;6.72;1.35;;;;;;;;;;4999670;28;39739;-78
2021/06/23 09:14:12;;;;;;;4.00;1.45;;;;;;;;;;5008728;28;39276;-79
2021/06/23 09:16:57;;;;;;;6.75;1.27;;;;;;;;;;5012072;28;37164;-78
2021/06/23 09:19:29;;;;;;;5.57;1.63;;;;;;;;;;4993542;28;38785;-80
2021/06/23 09:21:55;;;;;;;6.88;1.90;;;;;;;;;;5018795;28;39662;-79
2021/06/23 09:24:33;;;;;;;3.47;1.25;;;;;;;;;;4995162;28;38173;-79
2021/06/23 09:26:59;;;;;;;6.68;1.45;;;;;;;;;;5011547;28;37771;-77
2021/06/23 09:29:26;;;;;;;8.38;1.48;;;;;;;;;;5006503;28;39496;-80
2021/06/23 09:32:00;;;;;;;3.85;1.25;;;;;;;;;;5010874;28;39863;-79
2021/06/23 09:34:30;;;;;;;5.93;1.70;;;;;;;;;;5002339;28;38408;-80
2021/06/23 09:36:57;;;;;;;5.20;1.60;;;;;;;;;;5014573;28;37753;-81
2021/06/23 09:39:28;;;;;;;4.63;1.30;;;;;;;;;;5023633;28;40349;-80
2021/06/23 09:41:55;;;;;;;6.85;1.70;;;;;;;;;;5019007;28;40516;-81
2021/06/23 09:44:23;;;;;;;6.25;1.80;;;;;;;;;;5010404;28;39823;-80
2021/06/23 09:46:50;;;;;;;4.72;1.58;;;;;;;;;;5013460;28;36764;-80
2021/06/23 09:49:26;;;;;;;5.80;1.60;;;;;;;;;;5007085;28;38808;-79
2021/06/23 09:51:53;;;;;;;5.72;1.50;;;;;;;;;;5000005;28;40575;-81
2021/06/23 09:54:21;;;;;;;6.30;1.52;;;;;;;;;;5012702;28;39788;-79
2021/06/23 09:56:48;;;;;;;5.15;1.58;;;;;;;;;;5002157;28;37644;-78
2021/06/23 09:59:46;;;;;;;5.05;1.67;;;;;;;;;;4986917;28;38943;-79
2021/06/23 10:02:34;;;;;;;5.40;1.63;;;;;;;;;;5000717;28;38693;-79
2021/06/23 10:05:24;;;;;;;4.65;1.75;;;;;;;;;;4994724;28;38477;-79
2021/06/23 10:07:51;;;;;;;7.80;1.98;;;;;;;;;;5005638;28;47516;-79
2021/06/23 10:10:20;;;;;;;4.50;1.30;;;;;;;;;;5004535;28;39902;-78
2021/06/23 10:12:47;;;;;;;6.13;1.52;;;;;;;;;;4994146;28;38909;-78
2021/06/23 10:15:13;;;;;;;6.93;1.48;;;;;;;;;;4988270;28;38574;-78
2021/06/23 10:17:40;;;;;;;5.97;1.48;;;;;;;;;;5004300;28;37750;-78
2021/06/23 10:20:07;;;;;;;5.35;1.75;;;;;;;;;;4993377;28;39458;-79
2021/06/23 10:22:33;;;;;;;5.40;1.38;;;;;;;;;;4993953;28;41175;-79
2021/06/23 10:25:03;;;;;;;7.75;1.75;;;;;;;;;;4997289;28;39130;-78
2021/06/23 10:27:29;;;;;;;6.65;2.13;;;;;;;;;;5019465;28;47515;-78
2021/06/23 10:29:59;;;;;;;6.63;1.55;;;;;;;;;;5023746;28;39619;-79
2021/06/23 10:32:26;;;;;;;4.70;1.63;;;;;;;;;;4991659;28;39635;-78
2021/06/23 10:34:52;;;;;;;3.13;1.02;;;;;;;;;;4991939;28;39680;-79
2021/06/23 10:37:20;;;;;;;6.88;1.55;;;;;;;;;;5000231;28;36760;-78
2021/06/23 10:39:47;;;;;;;3.58;1.23;;;;;;;;;;5013583;28;40044;-78
2021/06/23 10:42:14;;;;;;;8.32;2.00;;;;;;;;;;5011166;28;39341;-78
2021/06/23 10:44:43;;;;;;;4.40;1.27;;;;;;;;;;4999618;28;39050;-79
2021/06/23 10:47:11;;;;;;;6.13;2.13;;;;;;;;;;4992676;28;36951;-79
2021/06/23 10:49:45;;;;;;;3.60;1.38;;;;;;;;;;4994487;28;38843;-78
2021/06/23 10:52:20;;;;;;;5.90;2.00;;;;;;;;;;5007750;28;39252;-79
2021/06/23 10:54:51;;;;;;;5.68;1.65;;;;;;;;;;5002860;28;38895;-79
2021/06/23 10:57:23;;;;;;;3.45;1.30;;;;;;;;;;5003933;28;37030;-79
2021/06/23 10:59:49;;;;;;;7.35;1.58;;;;;;;;;;4985128;28;39108;-78
2021/06/23 11:02:16;;;;;;;6.05;1.58;;;;;;;;;;4992843;28;38271;-79
2021/06/23 11:05:00;;;;;;;3.35;1.60;;;;;;;;;;4996128;28;39123;-80
2021/06/23 11:07:44;;;;;;;5.20;1.20;;;;;;;;;;4995252;28;37873;-80
2021/06/23 11:10:13;;;;;;;7.78;1.75;;;;;;;;;;4993438;28;39629;-79
2021/06/23 11:12:52;;;;;;;5.32;1.60;;;;;;;;;;5009619;28;39128;-80
2021/06/23 11:15:21;;;;;;;7.40;1.55;;;;;;;;;;5000708;28;38484;-80
2021/06/23 11:17:48;;;;;;;5.05;1.80;;;;;;;;;;5034367;28;37416;-81
2021/06/23 11:20:21;;;;;;;4.28;1.52;;;;;;;;;;5018425;28;40826;-79
2021/06/23 11:22:55;;;;;;;3.00;1.40;;;;;;;;;;4998836;28;38479;-79
2021/06/23 11:25:24;;;;;;;5.18;1.65;;;;;;;;;;4988311;28;40085;-79
2021/06/23 11:28:10;;;;;;;6.90;1.67;;;;;;;;;;5038373;28;38340;-79
2021/06/23 11:30:37;;;;;;;7.40;1.98;;;;;;;;;;5003849;28;48816;-80
2021/06/23 11:33:22;;;;;;;4.05;1.48;;;;;;;;;;5025902;28;40481;-80
2021/06/23 11:35:48;;;;;;;9.18;2.00;;;;;;;;;;5025008;28;39559;-79
2021/06/23 11:38:15;;;;;;;5.28;1.40;;;;;;;;;;5002367;28;36907;-79
2021/06/23 11:40:41;;;;;;;4.63;1.60;;;;;;;;;;5011633;28;39863;-80
2021/06/23 11:43:08;;;;;;;7.90;1.95;;;;;;;;;;5016723;28;39409;-79
2021/06/23 11:45:34;;;;;;;3.88;1.38;;;;;;;;;;5006784;28;38008;-79
2021/06/23 11:48:00;;;;;;;3.70;1.50;;;;;;;;;;5010729;28;37026;-79
2021/06/23 11:50:27;;;;;;;3.80;1.40;;;;;;;;;;5001342;28;38915;-79
2021/06/23 11:52:53;;;;;;;4.32;1.58;;;;;;;;;;5005857;28;38877;-79
2021/06/23 11:55:26;;;;;;;5.07;1.42;;;;;;;;;;4997029;28;39206;-79
2021/06/23 11:57:54;;;;;;;5.15;1.83;;;;;;;;;;5005230;28;38021;-80
2021/06/23 12:00:21;;;;;;;7.13;1.80;;;;;;;;;;5007616;28;38957;-79
2021/06/23 12:02:47;;;;;;;5.05;1.75;;;;;;;;;;5023422;28;39571;-80
2021/06/23 12:05:14;;;;;;;7.20;1.95;;;;;;;;;;5007148;28;38645;-80
2021/06/23 12:07:40;;;;;;;5.93;2.05;;;;;;;;;;4999756;28;37686;-80
2021/06/23 12:10:07;;;;;;;7.60;2.05;;;;;;;;;;4992010;28;39973;-81
2021/06/23 12:12:34;;;;;;;3.80;2.13;;;;;;;;;;4997350;28;39910;-80
2021/06/23 12:15:00;;;;;;;9.48;2.78;;;;;;;;;;4993742;28;38039;-79
2021/06/23 12:17:27;;;;;;;6.43;2.10;;;;;;;;;;5014012;28;38310;-80
2021/06/23 12:19:54;;;;;;;7.50;2.30;;;;;;;;;;5001798;28;39575;-80
2021/06/23 12:22:21;;;;;;;5.90;2.13;;;;;;;;;;5012370;28;39418;-81
2021/06/23 12:24:48;;;;;;;4.47;1.67;;;;;;;;;;4997803;28;39484;-80
2021/06/23 12:27:14;;;;;;;7.03;2.28;;;;;;;;;;4998772;28;36820;-79
2021/06/23 12:29:40;;;;;;;4.60;1.73;;;;;;;;;;4989459;28;40112;-81
2021/06/23 12:32:07;;;;;;;6.72;1.70;;;;;;;;;;4997455;28;40451;-80
2021/06/23 12:34:33;;;;;;;5.90;2.25;;;;;;;;;;5006928;28;39842;-78
2021/06/23 12:37:00;;;;;;;7.78;1.77;;;;;;;;;;5020658;28;36061;-79
2021/06/23 12:39:26;;;;;;;4.63;1.55;;;;;;;;;;4999934;28;40190;-79
2021/06/23 12:41:53;;;;;;;4.78;1.80;;;;;;;;;;5020426;28;39411;-81
2021/06/23 12:44:19;;;;;;;6.00;1.95;;;;;;;;;;4993715;28;39139;-80
2021/06/23 12:46:46;;;;;;;6.20;1.98;;;;;;;;;;5004063;28;38036;-81
2021/06/23 12:49:13;;;;;;;5.03;2.10;;;;;;;;;;5005574;28;39278;-80
2021/06/23 12:51:39;;;;;;;6.82;2.05;;;;;;;;;;5007468;28;38821;-80
2021/06/23 12:54:05;;;;;;;8.60;2.15;;;;;;;;;;5004704;28;38735;-80
2021/06/23 12:56:32;;;;;;;8.07;2.33;;;;;;;;;;5000440;28;38653;-80
2021/06/23 12:58:58;;;;;;;5.72;2.28;;;;;;;;;;4992811;28;39327;-81
2021/06/23 13:01:25;;;;;;;4.53;1.90;;;;;;;;;;5015750;28;39251;-81
2021/06/23 13:03:51;;;;;;;6.82;1.95;;;;;;;;;;4997527;28;38401;-80
2021/06/23 13:06:18;;;;;;;3.92;1.60;;;;;;;;;;4991371;28;37617;-81
2021/06/23 13:08:44;;;;;;;6.75;2.08;;;;;;;;;;4990733;28;39463;-79
2021/06/23 13:11:13;;;;;;;5.78;2.15;;;;;;;;;;5009686;28;39612;-79
2021/06/23 13:13:40;;;;;;;7.43;2.33;;;;;;;;;;5004564;28;39279;-79
2021/06/23 13:16:10;;;;;;;5.70;2.13;;;;;;;;;;5005451;28;37427;-78
2021/06/23 13:18:36;;;;;;;6.45;2.13;;;;;;;;;;4996057;28;38640;-80
2021/06/23 13:21:03;;;;;;;5.78;2.53;;;;;;;;;;5003194;28;40019;-79
2021/06/23 13:23:30;;;;;;;6.55;2.25;;;;;;;;;;5006589;28;38820;-79
2021/06/23 13:25:56;;;;;;;8.07;1.83;;;;;;;;;;4998927;28;36653;-77
2021/06/23 13:28:23;;;;;;;4.70;2.38;;;;;;;;;;5006753;28;39593;-77
2021/06/23 13:30:49;;;;;;;7.45;2.28;;;;;;;;;;4997299;28;38448;-79
2021/06/23 13:33:16;;;;;;;4.47;1.85;;;;;;;;;;5010055;28;38758;-78
2021/06/23 13:35:42;;;;;;;5.57;2.05;;;;;;;;;;5005528;28;38132;-76
2021/06/23 13:38:08;;;;;;;3.60;2.17;;;;;;;;;;5002256;28;39965;-80
2021/06/23 13:40:35;;;;;;;8.10;2.63;;;;;;;;;;5002794;28;38623;-78
2021/06/23 13:43:02;;;;;;;6.82;2.58;;;;;;;;;;5005273;28;39062;-77
2021/06/23 13:45:29;;;;;;;4.25;1.92;;;;;;;;;;4998316;28;36918;-78
2021/06/23 13:47:57;;;;;;;4.13;1.80;;;;;;;;;;5019513;28;39342;-78
2021/06/23 13:50:23;;;;;;;6.88;2.30;;;;;;;;;;4996453;28;39990;-78
2021/06/23 13:52:50;;;;;;;5.78;1.95;;;;;;;;;;5004538;28;39031;-77
2021/06/23 13:55:25;;;;;;;6.97;1.92;;;;;;;;;;4991888;28;38623;-78
2021/06/23 13:57:52;;;;;;;8.57;2.38;;;;;;;;;;5005520;28;38703;-78
2021/06/23 14:00:18;;;;;;;9.68;2.90;;;;;;;;;;4997246;28;38597;-80
2021/06/23 14:02:45;;;;;;;6.45;2.10;;;;;;;;;;5014250;28;38480;-78
2021/06/23 14:05:11;;;;;;;8.20;2.80;;;;;;;;;;5000932;28;36681;-78
2021/06/23 14:07:38;;;;;;;6.88;2.30;;;;;;;;;;5005766;28;39287;-79
2021/06/23 14:10:05;;;;;;;8.18;2.53;;;;;;;;;;4998497;28;38147;-82
2021/06/23 14:12:32;;;;;;;6.85;2.22;;;;;;;;;;4998531;28;39826;-80
2021/06/23 14:14:58;;;;;;;7.22;2.35;;;;;;;;;;4998077;28;37559;-78
2021/06/23 14:17:25;;;;;;;6.10;2.45;;;;;;;;;;5012928;28;38907;-80
2021/06/23 14:19:51;;;;;;;4.25;1.80;;;;;;;;;;5005680;28;38913;-78
2021/06/23 14:22:18;;;;;;;4.22;2.00;;;;;;;;;;5010403;28;38592;-79
2021/06/23 14:24:45;;;;;;;5.00;2.60;;;;;;;;;;4999327;28;35834;-78
2021/06/23 14:27:11;;;;;;;7.63;2.00;;;;;;;;;;4998023;28;39647;-80
2021/06/23 14:29:38;;;;;;;6.15;2.15;;;;;;;;;;4983828;28;39125;-79
2021/06/23 14:32:04;;;;;;;5.88;2.08;;;;;;;;;;5004984;28;38407;-78
2021/06/23 14:34:31;;;;;;;8.30;2.05;;;;;;;;;;5000133;28;36913;-80
2021/06/23 14:36:57;;;;;;;8.88;2.22;;;;;;;;;;5011700;28;38474;-81
2021/06/23 14:39:23;;;;;;;6.85;2.47;;;;;;;;;;5004083;28;39799;-81
2021/06/23 14:41:50;;;;;;;7.75;2.30;;;;;;;;;;4999238;28;38475;-79
2021/06/23 14:44:16;;;;;;;7.65;2.20;;;;;;;;;;4998900;28;37554;-79
2021/06/23 14:46:44;;;;;;;4.68;1.75;;;;;;;;;;5000374;28;39564;-79
2021/06/23 14:49:11;;;;;;;4.75;1.67;;;;;;;;;;4992151;28;40051;-82
2021/06/23 14:51:37;;;;;;;8.02;1.88;;;;;;;;;;4999914;28;38279;-80
2021/06/23 14:54:04;;;;;;;6.53;1.95;;;;;;;;;;4988990;28;37972;-78
2021/06/23 14:56:30;;;;;;;4.72;1.75;;;;;;;;;;4998867;28;39980;-79
2021/06/23 14:58:57;;;;;;;7.20;1.83;;;;;;;;;;4991357;28;39127;-79
2021/06/23 15:01:24;;;;;;;8.60;2.30;;;;;;;;;;5005222;28;38579;-80